Ahwahnee, California
Current Conditions -  °F | °C
As of 8:53 AM on Saturday 25 Oct 2014 (Local Time) from KMAE Reporting Station
Clear Clear  
Wind Chill: 64°   Ceiling: Unl
Heat Index: 64°   Visibility: 10mi
Dew Point: 46°   Wind: 10mph
Humidity: 52%   Direction: 80°E
Pressure: 30.03"   Gusts: NA
Location:  37.37°N, 119.73°W
Report Text: KMAE 251553Z AUTO 08009KT 10SM CLR 18/08 A3003 RMK AO2 SLP166 T01780078
Loading
Personal Weather Stations






























Interactive Weather Map
Tropical Storm Tracking
New forecast layout! Learn more

10-Day Weather Forecast

Advertisements
Track Severe Weather on mobile